sensor_id;sensor_type;location;lat;lon;timestamp;P1;durP1;ratioP1;P2;durP2;ratioP2
66581;SDS011;53438;48.898;2.308;2023-03-05T00:01:18;9.63;;;5.50;;
66581;SDS011;53438;48.898;2.308;2023-03-05T00:03:46;10.90;;;6.25;;
66581;SDS011;53438;48.898;2.308;2023-03-05T00:06:12;9.40;;;5.78;;
66581;SDS011;53438;48.898;2.308;2023-03-05T00:08:37;11.25;;;5.90;;
66581;SDS011;53438;48.898;2.308;2023-03-05T00:11:04;9.20;;;6.33;;
66581;SDS011;53438;48.898;2.308;2023-03-05T00:13:32;11.23;;;5.90;;
66581;SDS011;53438;48.898;2.308;2023-03-05T00:15:58;10.67;;;5.70;;
66581;SDS011;53438;48.898;2.308;2023-03-05T00:18:23;13.67;;;6.73;;
66581;SDS011;53438;48.898;2.308;2023-03-05T00:20:49;10.02;;;5.70;;
66581;SDS011;53438;48.898;2.308;2023-03-05T00:23:15;10.47;;;6.63;;
66581;SDS011;53438;48.898;2.308;2023-03-05T00:25:41;9.82;;;5.63;;
66581;SDS011;53438;48.898;2.308;2023-03-05T00:28:06;8.97;;;5.47;;
66581;SDS011;53438;48.898;2.308;2023-03-05T00:30:33;10.18;;;5.82;;
66581;SDS011;53438;48.898;2.308;2023-03-05T00:33:00;12.13;;;5.40;;
66581;SDS011;53438;48.898;2.308;2023-03-05T00:35:26;10.70;;;5.83;;
66581;SDS011;53438;48.898;2.308;2023-03-05T00:37:52;14.23;;;6.78;;
66581;SDS011;53438;48.898;2.308;2023-03-05T00:40:19;10.35;;;5.75;;
66581;SDS011;53438;48.898;2.308;2023-03-05T00:42:44;11.17;;;6.13;;
66581;SDS011;53438;48.898;2.308;2023-03-05T00:45:10;10.63;;;6.80;;
66581;SDS011;53438;48.898;2.308;2023-03-05T00:47:35;11.63;;;6.27;;
66581;SDS011;53438;48.898;2.308;2023-03-05T00:50:01;11.20;;;5.93;;
66581;SDS011;53438;48.898;2.308;2023-03-05T00:52:27;12.77;;;6.70;;
66581;SDS011;53438;48.898;2.308;2023-03-05T00:54:53;11.18;;;6.43;;
66581;SDS011;53438;48.898;2.308;2023-03-05T00:57:18;12.20;;;5.70;;
66581;SDS011;53438;48.898;2.308;2023-03-05T00:59:44;12.43;;;6.30;;
66581;SDS011;53438;48.898;2.308;2023-03-05T04:02:26;16.48;;;8.27;;
66581;SDS011;53438;48.898;2.308;2023-03-05T04:04:51;17.87;;;8.93;;
66581;SDS011;53438;48.898;2.308;2023-03-05T04:07:17;19.03;;;8.73;;
66581;SDS011;53438;48.898;2.308;2023-03-05T04:09:43;16.50;;;9.02;;
66581;SDS011;53438;48.898;2.308;2023-03-05T04:12:09;16.17;;;8.53;;
66581;SDS011;53438;48.898;2.308;2023-03-05T04:14:34;16.58;;;8.52;;
66581;SDS011;53438;48.898;2.308;2023-03-05T04:17:00;15.23;;;8.23;;
66581;SDS011;53438;48.898;2.308;2023-03-05T04:19:25;15.43;;;7.67;;
66581;SDS011;53438;48.898;2.308;2023-03-05T04:21:52;16.20;;;8.55;;
66581;SDS011;53438;48.898;2.308;2023-03-05T04:24:17;15.13;;;8.50;;
66581;SDS011;53438;48.898;2.308;2023-03-05T04:26:43;13.73;;;7.97;;
66581;SDS011;53438;48.898;2.308;2023-03-05T04:29:08;18.27;;;9.53;;
66581;SDS011;53438;48.898;2.308;2023-03-05T04:31:33;13.93;;;7.13;;
66581;SDS011;53438;48.898;2.308;2023-03-05T04:33:59;20.63;;;9.00;;
66581;SDS011;53438;48.898;2.308;2023-03-05T04:36:24;17.17;;;7.87;;
66581;SDS011;53438;48.898;2.308;2023-03-05T04:38:49;17.77;;;8.63;;
66581;SDS011;53438;48.898;2.308;2023-03-05T04:41:15;17.03;;;8.33;;
66581;SDS011;53438;48.898;2.308;2023-03-05T04:43:40;13.77;;;7.60;;
66581;SDS011;53438;48.898;2.308;2023-03-05T04:46:05;15.87;;;8.33;;
66581;SDS011;53438;48.898;2.308;2023-03-05T04:48:31;17.33;;;7.93;;
66581;SDS011;53438;48.898;2.308;2023-03-05T04:50:56;15.02;;;7.63;;
66581;SDS011;53438;48.898;2.308;2023-03-05T04:53:21;13.23;;;7.63;;
66581;SDS011;53438;48.898;2.308;2023-03-05T04:55:51;17.90;;;7.93;;
66581;SDS011;53438;48.898;2.308;2023-03-05T04:58:20;15.68;;;8.23;;
66581;SDS011;53438;48.898;2.308;2023-03-05T05:00:46;14.73;;;7.72;;
66581;SDS011;53438;48.898;2.308;2023-03-05T05:03:11;13.70;;;7.37;;
66581;SDS011;53438;48.898;2.308;2023-03-05T05:05:36;15.20;;;8.37;;
66581;SDS011;53438;48.898;2.308;2023-03-05T05:08:02;15.27;;;7.73;;
66581;SDS011;53438;48.898;2.308;2023-03-05T05:10:28;15.43;;;7.65;;
66581;SDS011;53438;48.898;2.308;2023-03-05T05:12:53;13.80;;;7.57;;
66581;SDS011;53438;48.898;2.308;2023-03-05T05:15:19;16.30;;;7.03;;
66581;SDS011;53438;48.898;2.308;2023-03-05T05:17:45;15.73;;;6.80;;
66581;SDS011;53438;48.898;2.308;2023-03-05T05:20:11;16.08;;;6.20;;
66581;SDS011;53438;48.898;2.308;2023-03-05T05:22:38;13.27;;;7.10;;
66581;SDS011;53438;48.898;2.308;2023-03-05T05:25:04;15.18;;;7.18;;
66581;SDS011;53438;48.898;2.308;2023-03-05T05:27:29;13.50;;;7.20;;
66581;SDS011;53438;48.898;2.308;2023-03-05T05:29:55;14.07;;;7.72;;
66581;SDS011;53438;48.898;2.308;2023-03-05T05:32:21;13.80;;;7.80;;
66581;SDS011;53438;48.898;2.308;2023-03-05T05:34:48;16.75;;;7.85;;
66581;SDS011;53438;48.898;2.308;2023-03-05T05:37:17;15.23;;;6.60;;
66581;SDS011;53438;48.898;2.308;2023-03-05T05:39:42;16.13;;;6.55;;
66581;SDS011;53438;48.898;2.308;2023-03-05T05:42:14;13.50;;;6.80;;
66581;SDS011;53438;48.898;2.308;2023-03-05T05:44:44;13.65;;;6.90;;
66581;SDS011;53438;48.898;2.308;2023-03-05T05:47:11;14.30;;;7.70;;
66581;SDS011;53438;48.898;2.308;2023-03-05T05:49:37;12.63;;;7.32;;
66581;SDS011;53438;48.898;2.308;2023-03-05T05:52:03;15.37;;;7.50;;
66581;SDS011;53438;48.898;2.308;2023-03-05T05:54:29;14.00;;;7.10;;
66581;SDS011;53438;48.898;2.308;2023-03-05T05:56:54;13.20;;;6.00;;
66581;SDS011;53438;48.898;2.308;2023-03-05T05:59:19;14.68;;;6.40;;
66581;SDS011;53438;48.898;2.308;2023-03-05T06:01:45;10.85;;;5.95;;
66581;SDS011;53438;48.898;2.308;2023-03-05T06:04:10;12.53;;;5.90;;
66581;SDS011;53438;48.898;2.308;2023-03-05T06:06:35;12.40;;;6.07;;
66581;SDS011;53438;48.898;2.308;2023-03-05T06:09:01;11.53;;;6.43;;
66581;SDS011;53438;48.898;2.308;2023-03-05T06:11:27;11.65;;;5.78;;
66581;SDS011;53438;48.898;2.308;2023-03-05T06:13:52;19.73;;;6.10;;
66581;SDS011;53438;48.898;2.308;2023-03-05T06:16:19;11.32;;;5.82;;
66581;SDS011;53438;48.898;2.308;2023-03-05T06:18:47;13.20;;;6.47;;
66581;SDS011;53438;48.898;2.308;2023-03-05T06:21:14;11.27;;;5.70;;
66581;SDS011;53438;48.898;2.308;2023-03-05T06:23:41;11.27;;;5.70;;
66581;SDS011;53438;48.898;2.308;2023-03-05T06:26:07;13.55;;;6.45;;
66581;SDS011;53438;48.898;2.308;2023-03-05T06:28:34;13.60;;;6.07;;
66581;SDS011;53438;48.898;2.308;2023-03-05T06:33:27;14.80;;;6.82;;
66581;SDS011;53438;48.898;2.308;2023-03-05T06:35:52;10.23;;;4.80;;
66581;SDS011;53438;48.898;2.308;2023-03-05T06:38:17;13.93;;;5.83;;
66581;SDS011;53438;48.898;2.308;2023-03-05T06:40:43;12.30;;;5.93;;
66581;SDS011;53438;48.898;2.308;2023-03-05T06:43:08;12.35;;;5.90;;
66581;SDS011;53438;48.898;2.308;2023-03-05T06:45:33;13.17;;;6.53;;
66581;SDS011;53438;48.898;2.308;2023-03-05T06:47:59;10.47;;;5.77;;
66581;SDS011;53438;48.898;2.308;2023-03-05T06:50:24;12.10;;;6.10;;
66581;SDS011;53438;48.898;2.308;2023-03-05T06:52:51;11.27;;;5.70;;
66581;SDS011;53438;48.898;2.308;2023-03-05T06:55:17;12.90;;;6.33;;
66581;SDS011;53438;48.898;2.308;2023-03-05T06:57:42;11.07;;;5.68;;
66581;SDS011;53438;48.898;2.308;2023-03-05T07:00:08;12.37;;;5.93;;
66581;SDS011;53438;48.898;2.308;2023-03-05T07:02:38;12.27;;;5.90;;
66581;SDS011;53438;48.898;2.308;2023-03-05T07:05:04;12.13;;;5.53;;
66581;SDS011;53438;48.898;2.308;2023-03-05T07:07:31;9.20;;;5.53;;
66581;SDS011;53438;48.898;2.308;2023-03-05T07:09:57;11.18;;;5.93;;
66581;SDS011;53438;48.898;2.308;2023-03-05T07:12:22;10.67;;;5.90;;
66581;SDS011;53438;48.898;2.308;2023-03-05T07:14:47;11.47;;;5.27;;
66581;SDS011;53438;48.898;2.308;2023-03-05T07:17:13;11.35;;;5.47;;
66581;SDS011;53438;48.898;2.308;2023-03-05T07:19:41;10.30;;;5.78;;
66581;SDS011;53438;48.898;2.308;2023-03-05T07:22:07;9.83;;;5.67;;
66581;SDS011;53438;48.898;2.308;2023-03-05T07:24:33;13.02;;;6.10;;
66581;SDS011;53438;48.898;2.308;2023-03-05T07:26:58;11.50;;;6.00;;
66581;SDS011;53438;48.898;2.308;2023-03-05T07:29:27;14.75;;;7.05;;
66581;SDS011;53438;48.898;2.308;2023-03-05T07:31:53;12.63;;;6.65;;
66581;SDS011;53438;48.898;2.308;2023-03-05T07:34:19;16.55;;;7.88;;
66581;SDS011;53438;48.898;2.308;2023-03-05T07:36:45;12.43;;;6.23;;
66581;SDS011;53438;48.898;2.308;2023-03-05T07:39:11;12.02;;;6.72;;
66581;SDS011;53438;48.898;2.308;2023-03-05T07:41:37;14.57;;;6.75;;
66581;SDS011;53438;48.898;2.308;2023-03-05T07:44:02;13.10;;;5.77;;
66581;SDS011;53438;48.898;2.308;2023-03-05T07:46:29;11.47;;;6.70;;
66581;SDS011;53438;48.898;2.308;2023-03-05T07:48:56;13.50;;;5.72;;
66581;SDS011;53438;48.898;2.308;2023-03-05T07:51:22;11.02;;;6.20;;
66581;SDS011;53438;48.898;2.308;2023-03-05T07:53:48;12.40;;;6.20;;
66581;SDS011;53438;48.898;2.308;2023-03-05T07:56:22;10.63;;;5.85;;
66581;SDS011;53438;48.898;2.308;2023-03-05T07:58:48;12.93;;;5.80;;
66581;SDS011;53438;48.898;2.308;2023-03-05T08:01:13;12.03;;;6.17;;
66581;SDS011;53438;48.898;2.308;2023-03-05T08:03:39;13.07;;;6.78;;
66581;SDS011;53438;48.898;2.308;2023-03-05T08:06:07;15.70;;;7.18;;
66581;SDS011;53438;48.898;2.308;2023-03-05T08:08:33;15.20;;;5.95;;
66581;SDS011;53438;48.898;2.308;2023-03-05T08:11:04;15.70;;;6.90;;
66581;SDS011;53438;48.898;2.308;2023-03-05T08:13:32;14.85;;;7.32;;
66581;SDS011;53438;48.898;2.308;2023-03-05T08:15:57;11.47;;;6.33;;
66581;SDS011;53438;48.898;2.308;2023-03-05T08:18:23;14.77;;;6.32;;
66581;SDS011;53438;48.898;2.308;2023-03-05T08:20:50;15.13;;;6.77;;
66581;SDS011;53438;48.898;2.308;2023-03-05T08:23:15;14.23;;;6.40;;
66581;SDS011;53438;48.898;2.308;2023-03-05T08:25:41;15.40;;;7.70;;
66581;SDS011;53438;48.898;2.308;2023-03-05T08:28:06;13.80;;;7.17;;
66581;SDS011;53438;48.898;2.308;2023-03-05T08:30:31;21.80;;;7.43;;
66581;SDS011;53438;48.898;2.308;2023-03-05T08:32:58;16.10;;;7.55;;
66581;SDS011;53438;48.898;2.308;2023-03-05T08:35:23;18.20;;;9.13;;
66581;SDS011;53438;48.898;2.308;2023-03-05T08:37:49;16.17;;;7.90;;
66581;SDS011;53438;48.898;2.308;2023-03-05T08:40:14;17.30;;;8.43;;
66581;SDS011;53438;48.898;2.308;2023-03-05T08:42:42;18.50;;;8.10;;
66581;SDS011;53438;48.898;2.308;2023-03-05T08:45:08;20.33;;;8.82;;
66581;SDS011;53438;48.898;2.308;2023-03-05T08:47:34;21.38;;;9.15;;
66581;SDS011;53438;48.898;2.308;2023-03-05T08:50:01;17.02;;;8.27;;
66581;SDS011;53438;48.898;2.308;2023-03-05T08:52:27;18.15;;;7.97;;
66581;SDS011;53438;48.898;2.308;2023-03-05T08:54:53;20.43;;;8.80;;
66581;SDS011;53438;48.898;2.308;2023-03-05T08:57:18;18.67;;;8.30;;
66581;SDS011;53438;48.898;2.308;2023-03-05T08:59:44;17.20;;;8.13;;
66581;SDS011;53438;48.898;2.308;2023-03-05T09:02:11;17.83;;;8.17;;
66581;SDS011;53438;48.898;2.308;2023-03-05T09:04:37;16.00;;;7.07;;
66581;SDS011;53438;48.898;2.308;2023-03-05T09:07:03;19.13;;;8.13;;
66581;SDS011;53438;48.898;2.308;2023-03-05T09:09:29;19.75;;;8.38;;
66581;SDS011;53438;48.898;2.308;2023-03-05T09:11:57;17.73;;;8.82;;
66581;SDS011;53438;48.898;2.308;2023-03-05T09:14:23;18.08;;;8.85;;
66581;SDS011;53438;48.898;2.308;2023-03-05T09:16:48;19.30;;;8.90;;
66581;SDS011;53438;48.898;2.308;2023-03-05T09:19:13;19.40;;;9.03;;
66581;SDS011;53438;48.898;2.308;2023-03-05T09:21:39;19.00;;;9.13;;
66581;SDS011;53438;48.898;2.308;2023-03-05T09:24:05;17.05;;;8.27;;
66581;SDS011;53438;48.898;2.308;2023-03-05T09:26:31;15.27;;;7.33;;
66581;SDS011;53438;48.898;2.308;2023-03-05T09:28:57;16.90;;;7.80;;
66581;SDS011;53438;48.898;2.308;2023-03-05T09:31:23;17.43;;;7.73;;
66581;SDS011;53438;48.898;2.308;2023-03-05T09:33:49;16.05;;;7.38;;
66581;SDS011;53438;48.898;2.308;2023-03-05T09:36:27;17.73;;;8.13;;
66581;SDS011;53438;48.898;2.308;2023-03-05T09:38:54;17.60;;;7.50;;
66581;SDS011;53438;48.898;2.308;2023-03-05T09:44:21;13.02;;;6.47;;
66581;SDS011;53438;48.898;2.308;2023-03-05T09:47:13;14.57;;;5.93;;
66581;SDS011;53438;48.898;2.308;2023-03-05T09:50:58;13.45;;;6.05;;
66581;SDS011;53438;48.898;2.308;2023-03-05T09:55:57;16.37;;;6.97;;
66581;SDS011;53438;48.898;2.308;2023-03-05T09:58:28;13.63;;;6.93;;
66581;SDS011;53438;48.898;2.308;2023-03-05T10:01:07;13.00;;;6.38;;
66581;SDS011;53438;48.898;2.308;2023-03-05T10:06:29;13.75;;;7.05;;
66581;SDS011;53438;48.898;2.308;2023-03-05T10:14:32;15.48;;;6.68;;
66581;SDS011;53438;48.898;2.308;2023-03-05T10:19:51;12.95;;;6.07;;
66581;SDS011;53438;48.898;2.308;2023-03-05T10:22:22;13.93;;;6.50;;
66581;SDS011;53438;48.898;2.308;2023-03-05T10:24:59;13.75;;;6.72;;
66581;SDS011;53438;48.898;2.308;2023-03-05T10:30:43;13.23;;;6.03;;
66581;SDS011;53438;48.898;2.308;2023-03-05T10:41:26;12.98;;;6.47;;
66581;SDS011;53438;48.898;2.308;2023-03-05T10:46:29;15.38;;;7.60;;
66581;SDS011;53438;48.898;2.308;2023-03-05T10:49:01;14.40;;;6.97;;
66581;SDS011;53438;48.898;2.308;2023-03-05T10:51:47;14.73;;;8.02;;
66581;SDS011;53438;48.898;2.308;2023-03-05T10:54:33;12.02;;;6.60;;
66581;SDS011;53438;48.898;2.308;2023-03-05T11:02:14;9.17;;;5.23;;
66581;SDS011;53438;48.898;2.308;2023-03-05T11:04:40;13.85;;;6.97;;
66581;SDS011;53438;48.898;2.308;2023-03-05T11:07:28;12.15;;;5.97;;
66581;SDS011;53438;48.898;2.308;2023-03-05T11:12:28;11.13;;;5.80;;
66581;SDS011;53438;48.898;2.308;2023-03-05T11:17:40;8.38;;;4.30;;
66581;SDS011;53438;48.898;2.308;2023-03-05T11:28:16;11.73;;;5.03;;
66581;SDS011;53438;48.898;2.308;2023-03-05T11:30:45;12.27;;;5.65;;
66581;SDS011;53438;48.898;2.308;2023-03-05T11:33:23;19.13;;;8.55;;
66581;SDS011;53438;48.898;2.308;2023-03-05T11:35:49;13.97;;;6.83;;
66581;SDS011;53438;48.898;2.308;2023-03-05T11:38:22;12.93;;;6.40;;
66581;SDS011;53438;48.898;2.308;2023-03-05T11:40:50;12.75;;;6.25;;
66581;SDS011;53438;48.898;2.308;2023-03-05T11:43:18;15.82;;;6.05;;
66581;SDS011;53438;48.898;2.308;2023-03-05T11:45:45;15.98;;;7.18;;
66581;SDS011;53438;48.898;2.308;2023-03-05T11:48:20;12.30;;;6.60;;
66581;SDS011;53438;48.898;2.308;2023-03-05T11:50:54;12.65;;;6.43;;
66581;SDS011;53438;48.898;2.308;2023-03-05T11:53:23;13.43;;;6.50;;
66581;SDS011;53438;48.898;2.308;2023-03-05T11:55:56;12.35;;;6.25;;
66581;SDS011;53438;48.898;2.308;2023-03-05T12:01:42;20.60;;;9.73;;
66581;SDS011;53438;48.898;2.308;2023-03-05T12:04:09;12.60;;;6.18;;
66581;SDS011;53438;48.898;2.308;2023-03-05T12:06:39;21.85;;;10.32;;
66581;SDS011;53438;48.898;2.308;2023-03-05T12:11:38;11.95;;;5.85;;
66581;SDS011;53438;48.898;2.308;2023-03-05T12:16:50;13.03;;;5.70;;
66581;SDS011;53438;48.898;2.308;2023-03-05T12:22:15;15.18;;;7.90;;
66581;SDS011;53438;48.898;2.308;2023-03-05T12:25:05;12.32;;;6.57;;
66581;SDS011;53438;48.898;2.308;2023-03-05T12:27:51;12.07;;;5.65;;
66581;SDS011;53438;48.898;2.308;2023-03-05T12:32:57;9.70;;;5.18;;
66581;SDS011;53438;48.898;2.308;2023-03-05T12:35:27;10.27;;;5.17;;
66581;SDS011;53438;48.898;2.308;2023-03-05T12:37:55;9.82;;;5.45;;
66581;SDS011;53438;48.898;2.308;2023-03-05T12:40:27;9.15;;;4.35;;
66581;SDS011;53438;48.898;2.308;2023-03-05T12:45:33;8.23;;;4.07;;
66581;SDS011;53438;48.898;2.308;2023-03-05T12:55:38;6.72;;;3.58;;
66581;SDS011;53438;48.898;2.308;2023-03-05T13:03:53;8.98;;;4.05;;
66581;SDS011;53438;48.898;2.308;2023-03-05T13:06:32;8.45;;;4.18;;
66581;SDS011;53438;48.898;2.308;2023-03-05T13:09:03;7.57;;;4.00;;
66581;SDS011;53438;48.898;2.308;2023-03-05T13:12:02;9.93;;;3.73;;
66581;SDS011;53438;48.898;2.308;2023-03-05T13:14:35;6.88;;;3.50;;
66581;SDS011;53438;48.898;2.308;2023-03-05T13:20:36;8.48;;;3.78;;
66581;SDS011;53438;48.898;2.308;2023-03-05T13:25:31;7.13;;;3.50;;
66581;SDS011;53438;48.898;2.308;2023-03-05T13:28:03;8.25;;;3.97;;
66581;SDS011;53438;48.898;2.308;2023-03-05T13:30:33;9.83;;;5.13;;
66581;SDS011;53438;48.898;2.308;2023-03-05T13:33:00;8.75;;;4.35;;
66581;SDS011;53438;48.898;2.308;2023-03-05T13:35:27;9.98;;;4.50;;
66581;SDS011;53438;48.898;2.308;2023-03-05T13:37:54;8.40;;;4.23;;
66581;SDS011;53438;48.898;2.308;2023-03-05T13:40:24;8.23;;;4.10;;
66581;SDS011;53438;48.898;2.308;2023-03-05T13:42:51;9.50;;;5.00;;
66581;SDS011;53438;48.898;2.308;2023-03-05T13:45:27;9.88;;;4.97;;
66581;SDS011;53438;48.898;2.308;2023-03-05T13:47:59;11.43;;;6.22;;
66581;SDS011;53438;48.898;2.308;2023-03-05T13:50:32;10.40;;;4.97;;
66581;SDS011;53438;48.898;2.308;2023-03-05T13:53:36;12.93;;;5.97;;
66581;SDS011;53438;48.898;2.308;2023-03-05T13:55:56;16.35;;;7.28;;
66581;SDS011;53438;48.898;2.308;2023-03-05T13:58:40;10.23;;;5.32;;
66581;SDS011;53438;48.898;2.308;2023-03-05T14:03:57;13.30;;;5.67;;
66581;SDS011;53438;48.898;2.308;2023-03-05T14:06:28;8.77;;;4.63;;
66581;SDS011;53438;48.898;2.308;2023-03-05T14:09:02;9.32;;;4.95;;
66581;SDS011;53438;48.898;2.308;2023-03-05T14:11:31;9.68;;;5.30;;
66581;SDS011;53438;48.898;2.308;2023-03-05T14:14:03;9.52;;;5.13;;
66581;SDS011;53438;48.898;2.308;2023-03-05T14:16:32;8.27;;;4.40;;
66581;SDS011;53438;48.898;2.308;2023-03-05T14:19:02;9.23;;;5.18;;
66581;SDS011;53438;48.898;2.308;2023-03-05T14:21:46;9.80;;;4.85;;
66581;SDS011;53438;48.898;2.308;2023-03-05T14:24:25;9.50;;;4.83;;
66581;SDS011;53438;48.898;2.308;2023-03-05T14:27:14;10.38;;;4.47;;
66581;SDS011;53438;48.898;2.308;2023-03-05T14:29:45;7.65;;;3.80;;
66581;SDS011;53438;48.898;2.308;2023-03-05T14:32:29;8.15;;;3.92;;
66581;SDS011;53438;48.898;2.308;2023-03-05T14:34:57;9.35;;;3.95;;
66581;SDS011;53438;48.898;2.308;2023-03-05T14:37:25;8.60;;;4.40;;
66581;SDS011;53438;48.898;2.308;2023-03-05T14:39:56;8.52;;;4.22;;
66581;SDS011;53438;48.898;2.308;2023-03-05T14:42:25;10.25;;;4.85;;
66581;SDS011;53438;48.898;2.308;2023-03-05T14:44:54;10.00;;;4.32;;
66581;SDS011;53438;48.898;2.308;2023-03-05T14:47:24;7.45;;;4.40;;
66581;SDS011;53438;48.898;2.308;2023-03-05T14:49:50;9.50;;;5.17;;
66581;SDS011;53438;48.898;2.308;2023-03-05T14:52:20;7.85;;;3.90;;
66581;SDS011;53438;48.898;2.308;2023-03-05T14:54:47;9.82;;;4.68;;
66581;SDS011;53438;48.898;2.308;2023-03-05T14:57:24;8.25;;;4.60;;
66581;SDS011;53438;48.898;2.308;2023-03-05T14:59:51;8.70;;;4.07;;
66581;SDS011;53438;48.898;2.308;2023-03-05T15:02:17;9.52;;;4.00;;
66581;SDS011;53438;48.898;2.308;2023-03-05T15:04:45;8.63;;;4.50;;
66581;SDS011;53438;48.898;2.308;2023-03-05T15:07:15;11.40;;;5.18;;
66581;SDS011;53438;48.898;2.308;2023-03-05T15:09:46;9.48;;;4.68;;
66581;SDS011;53438;48.898;2.308;2023-03-05T15:12:12;8.50;;;4.03;;
66581;SDS011;53438;48.898;2.308;2023-03-05T15:14:39;6.93;;;4.20;;
66581;SDS011;53438;48.898;2.308;2023-03-05T15:17:18;8.35;;;5.00;;
66581;SDS011;53438;48.898;2.308;2023-03-05T15:19:57;11.10;;;4.77;;
66581;SDS011;53438;48.898;2.308;2023-03-05T15:22:23;12.18;;;4.60;;
66581;SDS011;53438;48.898;2.308;2023-03-05T15:24:48;8.07;;;4.20;;
66581;SDS011;53438;48.898;2.308;2023-03-05T15:27:13;9.80;;;4.43;;
66581;SDS011;53438;48.898;2.308;2023-03-05T15:29:39;9.53;;;5.00;;
66581;SDS011;53438;48.898;2.308;2023-03-05T15:32:04;9.18;;;5.25;;
66581;SDS011;53438;48.898;2.308;2023-03-05T15:34:30;11.70;;;4.87;;
66581;SDS011;53438;48.898;2.308;2023-03-05T15:36:57;11.35;;;5.05;;
66581;SDS011;53438;48.898;2.308;2023-03-05T15:39:25;10.70;;;4.78;;
66581;SDS011;53438;48.898;2.308;2023-03-05T15:41:51;9.63;;;4.90;;
66581;SDS011;53438;48.898;2.308;2023-03-05T15:44:18;10.55;;;4.57;;
66581;SDS011;53438;48.898;2.308;2023-03-05T15:46:44;8.43;;;4.10;;
66581;SDS011;53438;48.898;2.308;2023-03-05T15:49:09;11.25;;;4.68;;
66581;SDS011;53438;48.898;2.308;2023-03-05T15:51:35;9.33;;;4.77;;
66581;SDS011;53438;48.898;2.308;2023-03-05T15:54:04;8.95;;;4.32;;
66581;SDS011;53438;48.898;2.308;2023-03-05T15:56:29;7.17;;;4.27;;
66581;SDS011;53438;48.898;2.308;2023-03-05T15:58:55;9.40;;;4.60;;
66581;SDS011;53438;48.898;2.308;2023-03-05T16:01:20;9.57;;;4.50;;
66581;SDS011;53438;48.898;2.308;2023-03-05T16:03:47;11.20;;;5.55;;
66581;SDS011;53438;48.898;2.308;2023-03-05T16:06:13;16.55;;;8.60;;
66581;SDS011;53438;48.898;2.308;2023-03-05T16:08:40;14.77;;;8.05;;
66581;SDS011;53438;48.898;2.308;2023-03-05T16:11:08;12.52;;;5.80;;
66581;SDS011;53438;48.898;2.308;2023-03-05T16:13:34;9.97;;;5.37;;
66581;SDS011;53438;48.898;2.308;2023-03-05T16:16:01;9.05;;;4.90;;
66581;SDS011;53438;48.898;2.308;2023-03-05T16:18:28;9.65;;;5.57;;
66581;SDS011;53438;48.898;2.308;2023-03-05T16:20:55;9.30;;;4.95;;
66581;SDS011;53438;48.898;2.308;2023-03-05T16:23:22;8.33;;;4.67;;
66581;SDS011;53438;48.898;2.308;2023-03-05T16:25:47;8.65;;;5.03;;
66581;SDS011;53438;48.898;2.308;2023-03-05T16:28:13;8.13;;;4.33;;
66581;SDS011;53438;48.898;2.308;2023-03-05T16:30:39;7.10;;;4.38;;
66581;SDS011;53438;48.898;2.308;2023-03-05T16:33:04;7.70;;;4.13;;
66581;SDS011;53438;48.898;2.308;2023-03-05T16:35:30;11.17;;;5.17;;
66581;SDS011;53438;48.898;2.308;2023-03-05T16:37:55;9.45;;;5.22;;
66581;SDS011;53438;48.898;2.308;2023-03-05T16:40:21;7.23;;;4.30;;
66581;SDS011;53438;48.898;2.308;2023-03-05T16:42:46;7.93;;;3.93;;
66581;SDS011;53438;48.898;2.308;2023-03-05T16:45:12;8.38;;;4.50;;
66581;SDS011;53438;48.898;2.308;2023-03-05T16:47:38;9.43;;;4.33;;
66581;SDS011;53438;48.898;2.308;2023-03-05T16:50:04;9.63;;;4.60;;
66581;SDS011;53438;48.898;2.308;2023-03-05T16:52:31;7.72;;;4.28;;
66581;SDS011;53438;48.898;2.308;2023-03-05T16:54:56;8.20;;;4.30;;
66581;SDS011;53438;48.898;2.308;2023-03-05T16:57:22;8.45;;;4.63;;
66581;SDS011;53438;48.898;2.308;2023-03-05T16:59:49;10.68;;;5.90;;
66581;SDS011;53438;48.898;2.308;2023-03-05T17:02:15;11.00;;;5.55;;
66581;SDS011;53438;48.898;2.308;2023-03-05T17:04:41;8.23;;;4.73;;
66581;SDS011;53438;48.898;2.308;2023-03-05T17:07:06;11.60;;;5.13;;
66581;SDS011;53438;48.898;2.308;2023-03-05T17:09:34;7.50;;;4.40;;
66581;SDS011;53438;48.898;2.308;2023-03-05T17:12:00;7.90;;;4.25;;
66581;SDS011;53438;48.898;2.308;2023-03-05T17:14:26;9.67;;;4.57;;
66581;SDS011;53438;48.898;2.308;2023-03-05T17:16:51;9.63;;;5.25;;
66581;SDS011;53438;48.898;2.308;2023-03-05T17:19:17;9.80;;;4.60;;
66581;SDS011;53438;48.898;2.308;2023-03-05T17:21:42;8.70;;;5.20;;
66581;SDS011;53438;48.898;2.308;2023-03-05T17:24:08;11.80;;;5.32;;
66581;SDS011;53438;48.898;2.308;2023-03-05T17:26:34;11.97;;;5.90;;
66581;SDS011;53438;48.898;2.308;2023-03-05T17:29:03;9.40;;;5.63;;
66581;SDS011;53438;48.898;2.308;2023-03-05T17:31:28;11.57;;;6.20;;
66581;SDS011;53438;48.898;2.308;2023-03-05T17:33:54;10.57;;;5.23;;
66581;SDS011;53438;48.898;2.308;2023-03-05T17:36:21;10.65;;;5.55;;
66581;SDS011;53438;48.898;2.308;2023-03-05T17:38:48;9.95;;;6.00;;
66581;SDS011;53438;48.898;2.308;2023-03-05T17:41:14;9.27;;;5.40;;
66581;SDS011;53438;48.898;2.308;2023-03-05T17:43:40;9.13;;;4.88;;
66581;SDS011;53438;48.898;2.308;2023-03-05T17:46:06;13.38;;;5.95;;
66581;SDS011;53438;48.898;2.308;2023-03-05T17:48:33;10.80;;;6.37;;
66581;SDS011;53438;48.898;2.308;2023-03-05T17:51:03;12.40;;;6.50;;
66581;SDS011;53438;48.898;2.308;2023-03-05T17:53:30;11.57;;;5.57;;
66581;SDS011;53438;48.898;2.308;2023-03-05T17:55:55;10.83;;;6.40;;
66581;SDS011;53438;48.898;2.308;2023-03-05T17:58:20;10.03;;;5.57;;
66581;SDS011;53438;48.898;2.308;2023-03-05T18:00:46;11.70;;;5.85;;
66581;SDS011;53438;48.898;2.308;2023-03-05T18:03:11;17.23;;;8.07;;
66581;SDS011;53438;48.898;2.308;2023-03-05T18:05:37;14.60;;;6.60;;
66581;SDS011;53438;48.898;2.308;2023-03-05T18:08:02;16.87;;;9.50;;
66581;SDS011;53438;48.898;2.308;2023-03-05T18:10:29;10.07;;;6.03;;
66581;SDS011;53438;48.898;2.308;2023-03-05T18:12:56;10.82;;;5.75;;
66581;SDS011;53438;48.898;2.308;2023-03-05T18:15:23;13.27;;;6.28;;
66581;SDS011;53438;48.898;2.308;2023-03-05T18:17:50;11.20;;;5.57;;
66581;SDS011;53438;48.898;2.308;2023-03-05T18:20:31;13.52;;;6.68;;
66581;SDS011;53438;48.898;2.308;2023-03-05T18:23:00;12.63;;;6.78;;
66581;SDS011;53438;48.898;2.308;2023-03-05T18:25:27;11.85;;;5.85;;
66581;SDS011;53438;48.898;2.308;2023-03-05T18:27:57;10.63;;;6.10;;
66581;SDS011;53438;48.898;2.308;2023-03-05T18:30:25;12.83;;;7.13;;
66581;SDS011;53438;48.898;2.308;2023-03-05T18:32:51;14.20;;;6.65;;
66581;SDS011;53438;48.898;2.308;2023-03-05T18:35:16;14.57;;;6.77;;
66581;SDS011;53438;48.898;2.308;2023-03-05T18:37:42;11.35;;;6.15;;
66581;SDS011;53438;48.898;2.308;2023-03-05T18:40:07;12.23;;;6.33;;
66581;SDS011;53438;48.898;2.308;2023-03-05T18:42:37;12.98;;;7.00;;
66581;SDS011;53438;48.898;2.308;2023-03-05T18:45:05;16.00;;;8.67;;
66581;SDS011;53438;48.898;2.308;2023-03-05T18:47:34;16.02;;;7.47;;
66581;SDS011;53438;48.898;2.308;2023-03-05T18:49:59;14.77;;;6.90;;
66581;SDS011;53438;48.898;2.308;2023-03-05T18:52:25;15.70;;;8.43;;
66581;SDS011;53438;48.898;2.308;2023-03-05T18:54:50;14.10;;;7.93;;
66581;SDS011;53438;48.898;2.308;2023-03-05T18:57:15;13.35;;;6.75;;
66581;SDS011;53438;48.898;2.308;2023-03-05T18:59:41;13.60;;;6.82;;
66581;SDS011;53438;48.898;2.308;2023-03-05T19:02:13;13.13;;;6.93;;
66581;SDS011;53438;48.898;2.308;2023-03-05T19:04:39;12.53;;;6.80;;
66581;SDS011;53438;48.898;2.308;2023-03-05T19:07:05;12.15;;;6.47;;
66581;SDS011;53438;48.898;2.308;2023-03-05T19:12:33;12.18;;;7.05;;
66581;SDS011;53438;48.898;2.308;2023-03-05T19:15:37;12.93;;;7.53;;
66581;SDS011;53438;48.898;2.308;2023-03-05T19:18:03;16.98;;;8.48;;